Terminal Aerodrome Forecast
Issued by NWS Portland, OR

Home | Current Version | Previous Version | Text Only | Print | Product List | Glossary On
Versions: 1 2 3 4 5 6 7 8 9 10 11 12 13 14 15 16 17 18 19 20 21 22 23 24 25 26 27 28 29 30 31 32 33
000
FTUS46 KPQR 140520
TAFEUG
TAF
KEUG 140520Z 1406/1506 23009KT P6SM BKN025 OVC035
     FM141000 23006KT P6SM BKN015 OVC025
     FM141800 30005KT P6SM BKN025
     FM142000 35009KT P6SM SKC=

USA.gov is the U.S. government's official web portal to all federal, state and local government web resources and services.